Time;durP1;ratioP1;P1;durP2;ratioP2;P2;SDS_P1;SDS_P2;PMS_P1;PMS_P2;Temp;Humidity;BMP_temperature;BMP_pressure;BME280_temperature;BME280_humidity;BME280_pressure;Samples;Min_cycle;Max_cycle;Signal;HPM_P1;HPM_P2
2022/03/31 00:02:25;;;;;;;13.23;4.75;;;;;;;13.93;45.79;98135.44;7738161;32;40705;-69
2022/03/31 00:06:42;;;;;;;16.73;5.60;;;;;;;13.88;46.33;98141.91;7725808;32;37991;-69
2022/03/31 00:10:58;;;;;;;18.08;6.35;;;;;;;13.57;47.13;98128.59;7712931;32;37052;-70
2022/03/31 00:15:14;;;;;;;17.50;5.68;;;;;;;13.67;47.34;98126.25;7738128;32;39028;-70
2022/03/31 00:19:31;;;;;;;15.77;5.15;;;;;;;13.85;47.26;98113.25;7737926;32;39943;-70
2022/03/31 00:23:47;;;;;;;16.83;5.20;;;;;;;13.85;47.57;98112.47;7737681;32;37801;-69
2022/03/31 00:28:03;;;;;;;18.35;6.12;;;;;;;13.81;47.48;98106.03;7738054;32;37131;-69
2022/03/31 00:32:20;;;;;;;15.50;5.60;;;;;;;13.47;48.52;98103.22;7737978;32;39364;-69
2022/03/31 00:36:36;;;;;;;15.80;5.55;;;;;;;14.06;47.01;98096.00;7737772;32;40728;-69
2022/03/31 00:40:53;;;;;;;11.20;5.28;;;;;;;14.14;46.77;98092.38;7735396;32;38518;-70
2022/03/31 00:45:21;;;;;;;12.60;4.90;;;;;;;14.34;46.19;98087.19;7709553;32;38219;-70
2022/03/31 00:49:37;;;;;;;16.02;5.55;;;;;;;14.04;46.28;98079.13;7729781;32;40124;-70
2022/03/31 00:53:54;;;;;;;14.40;5.93;;;;;;;13.86;46.97;98084.72;7737589;32;40182;-70
2022/03/31 00:58:10;;;;;;;18.62;5.07;;;;;;;13.78;47.13;98076.56;7737404;32;38586;-70
2022/03/31 01:02:30;;;;;;;17.23;6.30;;;;;;;14.02;46.56;98073.97;7737352;32;37989;-69
2022/03/31 01:06:46;;;;;;;14.35;5.57;;;;;;;14.26;45.77;98062.28;7737437;32;39308;-70
2022/03/31 01:11:02;;;;;;;13.98;5.75;;;;;;;13.98;46.63;98064.00;7733561;32;39769;-70
2022/03/31 01:15:20;;;;;;;16.90;5.45;;;;;;;13.94;46.55;98065.81;7710304;32;37920;-70
2022/03/31 01:19:36;;;;;;;13.30;4.93;;;;;;;13.76;46.84;98065.16;7710122;32;37876;-70
2022/03/31 01:23:54;;;;;;;13.73;5.45;;;;;;;13.76;46.86;98055.00;7710002;32;39310;-70
2022/03/31 01:28:10;;;;;;;14.10;5.15;;;;;;;13.95;46.53;98050.97;7708950;32;40653;-70
2022/03/31 01:32:27;;;;;;;15.15;5.43;;;;;;;14.44;45.25;98051.13;7734396;32;38752;-70
2022/03/31 01:36:43;;;;;;;20.37;5.72;;;;;;;14.48;44.99;98046.56;7733826;32;37139;-68
2022/03/31 01:41:00;;;;;;;15.57;5.07;;;;;;;14.11;45.76;98041.00;7734551;32;40163;-70
2022/03/31 01:45:18;;;;;;;14.32;5.15;;;;;;;14.18;45.68;98041.25;7736371;32;40817;-70
2022/03/31 01:49:37;;;;;;;20.00;5.12;;;;;;;14.36;45.40;98021.88;7722787;32;37673;-69
2022/03/31 01:53:53;;;;;;;17.00;5.03;;;;;;;14.32;45.58;98020.97;7736285;32;36448;-70
2022/03/31 01:58:09;;;;;;;18.77;5.82;;;;;;;14.01;46.59;98022.25;7738289;32;39989;-70
2022/03/31 02:02:26;;;;;;;15.38;5.75;;;;;;;14.27;45.91;98024.72;7725750;32;39488;-70
2022/03/31 02:06:42;;;;;;;21.40;5.53;;;;;;;14.40;45.60;98033.75;7739489;32;37906;-70
2022/03/31 02:10:58;;;;;;;17.12;5.10;;;;;;;14.22;45.61;98033.16;7735653;32;37141;-70
2022/03/31 02:15:14;;;;;;;16.35;5.00;;;;;;;14.03;46.32;98033.66;7712736;32;39411;-70
2022/03/31 02:19:31;;;;;;;15.77;5.37;;;;;;;13.89;46.84;98021.06;7698679;32;40237;-70
2022/03/31 02:23:47;;;;;;;17.08;5.37;;;;;;;14.43;45.62;98020.16;7712271;32;38403;-70
2022/03/31 02:28:04;;;;;;;16.60;5.62;;;;;;;14.22;45.79;98006.53;7712542;32;37871;-70
2022/03/31 02:32:21;;;;;;;17.48;6.00;;;;;;;14.17;46.56;98004.00;7712486;32;40158;-70
2022/03/31 02:36:37;;;;;;;17.62;5.18;;;;;;;14.40;45.72;98003.59;7712351;32;39952;-70
2022/03/31 02:40:53;;;;;;;16.67;5.50;;;;;;;14.28;45.55;98002.44;7713359;32;38731;-69
2022/03/31 02:45:10;;;;;;;17.12;5.50;;;;;;;14.67;44.58;97998.63;7738113;32;37939;-70
2022/03/31 02:49:26;;;;;;;16.77;5.30;;;;;;;14.44;44.95;98001.78;7738958;32;40023;-70
2022/03/31 02:58:17;;;;;;;16.70;5.75;;;;;;;14.72;44.37;97995.66;7738952;32;38770;-70
2022/03/31 03:02:34;;;;;;;16.58;5.80;;;;;;;14.74;44.36;97994.16;7738817;32;37975;-70
2022/03/31 03:06:50;;;;;;;14.43;5.53;;;;;;;14.85;43.93;97994.53;7738892;32;40109;-70
2022/03/31 03:11:08;;;;;;;11.57;4.82;;;;;;;15.08;43.49;97991.28;7732464;32;40587;-70
2022/03/31 03:15:27;;;;;;;16.52;6.25;;;;;;;15.21;43.69;97979.13;7711938;32;38050;-70
2022/03/31 03:19:43;;;;;;;18.05;6.25;;;;;;;15.23;44.04;97985.09;7698030;32;37269;-70
2022/03/31 03:24:01;;;;;;;18.35;6.00;;;;;;;14.86;44.95;97990.63;7711646;32;40072;-70
2022/03/31 03:28:18;;;;;;;21.12;6.60;;;;;;;14.97;44.81;97997.25;7711528;32;40293;-69
2022/03/31 03:32:36;;;;;;;18.90;6.35;;;;;;;14.97;44.95;97985.47;7711633;32;38629;-70
2022/03/31 03:36:52;;;;;;;18.83;6.62;;;;;;;14.87;45.34;97978.50;7712441;32;37591;-70
2022/03/31 03:41:13;;;;;;;15.82;6.87;;;;;;;14.81;45.52;97969.72;7717262;32;39292;-70
2022/03/31 03:45:29;;;;;;;18.10;6.35;;;;;;;14.76;45.71;97980.09;7738613;32;40700;-70
2022/03/31 03:49:45;;;;;;;25.70;7.20;;;;;;;14.64;45.98;97978.97;7738231;32;38613;-69
2022/03/31 03:54:03;;;;;;;18.50;6.75;;;;;;;14.75;45.78;97968.34;7738304;32;37874;-70
2022/03/31 03:58:19;;;;;;;18.00;6.68;;;;;;;14.51;46.40;97969.12;7738336;32;38996;-70
2022/03/31 04:02:35;;;;;;;21.12;7.03;;;;;;;14.49;46.55;97973.31;7738117;32;39886;-70
2022/03/31 04:06:51;;;;;;;23.77;7.87;;;;;;;14.47;46.68;97962.72;7725633;32;37975;-69
2022/03/31 04:11:08;;;;;;;23.40;7.37;;;;;;;14.30;47.23;97952.78;7717195;32;37110;-70
2022/03/31 04:15:24;;;;;;;18.58;7.30;;;;;;;14.41;46.97;97944.88;7738041;32;39280;-70
2022/03/31 04:19:40;;;;;;;16.00;7.50;;;;;;;14.30;47.33;97943.72;7714539;32;41569;-70
2022/03/31 04:23:56;;;;;;;13.35;7.10;;;;;;;14.08;47.93;97945.78;7710963;32;37869;-70
2022/03/31 04:28:13;;;;;;;17.62;7.40;;;;;;;14.23;47.45;97953.34;7711122;32;37735;-70
2022/03/31 04:32:29;;;;;;;21.70;8.30;;;;;;;14.06;47.89;97948.06;7711076;32;39968;-70
2022/03/31 04:36:45;;;;;;;17.37;8.30;;;;;;;13.86;48.43;97949.72;7711026;32;40802;-70
2022/03/31 04:41:03;;;;;;;19.05;8.38;;;;;;;13.96;48.12;97937.53;7716488;32;37950;-70
2022/03/31 04:45:19;;;;;;;20.70;8.23;;;;;;;13.97;48.13;97934.47;7737729;32;37944;-69
2022/03/31 04:49:35;;;;;;;18.00;8.18;;;;;;;13.90;48.23;97936.94;7737657;32;40109;-70
2022/03/31 04:53:52;;;;;;;16.20;8.05;;;;;;;13.81;48.54;97947.97;7737540;32;40116;-70
2022/03/31 04:58:08;;;;;;;21.75;8.13;;;;;;;13.95;48.22;97935.91;7723609;32;37925;-70
2022/03/31 05:02:25;;;;;;;32.90;8.88;;;;;;;14.14;47.84;97933.44;7737423;32;37379;-70
2022/03/31 05:06:41;;;;;;;15.57;7.53;;;;;;;13.88;48.51;97931.81;7737523;32;40055;-70
2022/03/31 05:10:58;;;;;;;16.15;8.68;;;;;;;14.23;47.43;97936.88;7717397;32;39839;-70
2022/03/31 05:15:14;;;;;;;23.95;9.18;;;;;;;14.22;47.45;97935.28;7710262;32;37838;-70
2022/03/31 05:19:30;;;;;;;19.83;8.00;;;;;;;13.90;48.40;97940.50;7710260;32;37049;-70
2022/03/31 05:23:46;;;;;;;22.87;8.35;;;;;;;14.05;48.04;97939.00;7710729;32;39259;-70
2022/03/31 05:28:02;;;;;;;20.30;7.82;;;;;;;14.11;47.91;97944.28;7709987;32;40766;-69
2022/03/31 05:32:18;;;;;;;15.30;7.90;;;;;;;14.16;47.81;97936.66;7711221;32;37705;-70
2022/03/31 05:36:34;;;;;;;22.62;9.20;;;;;;;14.22;47.60;97935.28;7713103;32;37196;-70
2022/03/31 05:40:50;;;;;;;17.17;8.00;;;;;;;14.49;47.02;97922.06;7718006;32;39373;-70
2022/03/31 05:45:12;;;;;;;22.10;8.60;;;;;;;14.18;47.90;97934.38;7740055;32;38477;-70
2022/03/31 05:49:28;;;;;;;21.58;7.68;;;;;;;14.31;47.73;97937.13;7739664;32;37760;-70
2022/03/31 05:53:44;;;;;;;17.73;8.38;;;;;;;14.52;47.14;97932.34;7739812;32;37004;-70
2022/03/31 05:58:00;;;;;;;18.10;9.00;;;;;;;14.38;47.47;97940.09;7717451;32;39103;-70
2022/03/31 06:02:16;;;;;;;21.87;9.13;;;;;;;14.15;48.16;97937.00;7712652;32;40668;-69
2022/03/31 06:06:53;;;;;;;15.57;8.27;;;;;;;14.16;48.20;97936.66;7713008;32;38170;-69
2022/03/31 06:11:09;;;;;;;18.15;8.00;;;;;;;14.24;48.03;97933.00;7713642;32;37224;-68
2022/03/31 06:15:25;;;;;;;23.12;8.07;;;;;;;14.33;49.47;97940.31;7712842;32;38216;-71
2022/03/31 06:19:41;;;;;;;23.85;8.18;;;;;;;14.41;48.47;97944.88;7712631;32;40763;-69
2022/03/31 06:23:57;;;;;;;16.60;7.95;;;;;;;14.45;48.18;97937.56;7725376;32;38570;-69
2022/03/31 06:28:14;;;;;;;17.55;8.40;;;;;;;14.57;48.09;97950.47;7713376;32;38745;-70
2022/03/31 06:32:30;;;;;;;14.05;8.13;;;;;;;14.43;49.31;97948.88;7711462;32;40076;-70
2022/03/31 06:36:46;;;;;;;23.20;8.93;;;;;;;14.36;49.70;97945.13;7712485;32;40723;-70
2022/03/31 06:41:14;;;;;;;16.83;8.40;;;;;;;14.24;50.39;97957.66;7712999;32;37652;-71
2022/03/31 06:45:30;;;;;;;18.50;9.13;;;;;;;14.26;49.89;97952.66;7712498;32;38227;-69
2022/03/31 06:49:47;;;;;;;19.85;8.98;;;;;;;14.42;49.67;97960.22;7713879;32;39113;-70
2022/03/31 06:54:03;;;;;;;23.70;9.07;;;;;;;14.18;50.97;97959.03;7738756;32;39887;-70
2022/03/31 06:58:25;;;;;;;23.27;9.25;;;;;;;14.02;52.38;97963.56;7738739;32;38669;-70
2022/03/31 07:02:41;;;;;;;21.83;9.73;;;;;;;14.11;52.02;97957.97;7738774;32;37255;-69
2022/03/31 07:06:57;;;;;;;21.05;10.27;;;;;;;13.95;53.49;97964.09;7738624;32;39911;-70
2022/03/31 07:11:13;;;;;;;22.20;9.73;;;;;;;13.95;54.13;97966.06;7729405;32;40206;-70
2022/03/31 07:15:31;;;;;;;26.73;10.00;;;;;;;13.95;54.54;97963.31;7711940;32;38603;-70
2022/03/31 07:19:47;;;;;;;19.67;10.43;;;;;;;13.77;55.41;97973.66;7712006;32;37223;-71
2022/03/31 07:24:03;;;;;;;21.70;9.57;;;;;;;13.83;55.41;97958.59;7712478;32;37874;-71
2022/03/31 07:28:20;;;;;;;23.48;10.30;;;;;;;13.85;55.55;97961.81;7711978;32;40134;-69
2022/03/31 07:32:45;;;;;;;17.48;10.20;;;;;;;13.89;55.69;97963.53;7711893;32;37867;-69
2022/03/31 07:37:01;;;;;;;22.10;11.80;;;;;;;13.65;56.79;97963.47;7722972;32;37145;-69
2022/03/31 07:41:17;;;;;;;23.90;10.45;;;;;;;13.23;58.98;97966.19;7737186;32;39456;-69
2022/03/31 07:45:35;;;;;;;24.80;11.70;;;;;;;13.53;58.34;97962.25;7738430;32;39880;-68
2022/03/31 07:49:52;;;;;;;18.92;12.05;;;;;;;13.26;59.47;97971.00;7738089;32;37882;-68
2022/03/31 07:54:08;;;;;;;22.48;11.55;;;;;;;13.28;60.33;97975.00;7697352;32;38036;-68
2022/03/31 07:58:25;;;;;;;22.80;10.95;;;;;;;13.30;60.55;97967.25;7712382;32;39983;-69
2022/03/31 08:02:42;;;;;;;29.85;13.07;;;;;;;13.24;60.83;97973.25;7729044;32;40737;-70
2022/03/31 08:06:59;;;;;;;21.52;12.07;;;;;;;13.45;60.32;97982.31;7738271;32;38753;-69
2022/03/31 08:11:15;;;;;;;18.83;11.65;;;;;;;13.32;61.03;97972.44;7734280;32;37331;-69
2022/03/31 08:15:32;;;;;;;26.50;13.20;;;;;;;13.51;60.96;97967.28;7714370;32;39248;-70
2022/03/31 08:19:48;;;;;;;26.83;13.50;;;;;;;13.09;62.07;97969.19;7711261;32;39882;-69
2022/03/31 08:24:04;;;;;;;25.23;13.88;;;;;;;13.40;61.09;97963.38;7734604;32;39061;-69
2022/03/31 08:28:21;;;;;;;20.98;13.13;;;;;;;13.51;61.18;97955.53;7738027;32;37997;-69
2022/03/31 08:32:39;;;;;;;31.85;14.75;;;;;;;13.34;61.41;97956.47;7737844;32;39360;-70
2022/03/31 08:36:57;;;;;;;25.85;15.23;;;;;;;13.25;62.23;97956.53;7737813;32;40775;-70
2022/03/31 08:41:14;;;;;;;25.58;14.18;;;;;;;13.34;61.96;97951.00;7728145;32;38768;-69
2022/03/31 08:45:34;;;;;;;24.05;14.23;;;;;;;12.81;63.55;97949.75;7711075;32;37326;-69
2022/03/31 08:49:50;;;;;;;22.23;14.43;;;;;;;12.73;63.61;97943.22;7709777;32;39376;-69
2022/03/31 08:54:08;;;;;;;25.88;13.48;;;;;;;13.43;61.32;97932.56;7711040;32;40722;-69
2022/03/31 08:58:25;;;;;;;28.08;14.80;;;;;;;13.02;62.20;97934.19;7710714;32;37939;-69
2022/03/31 09:02:51;;;;;;;23.50;13.45;;;;;;;13.22;62.09;97939.97;7710632;32;38181;-69
2022/03/31 09:07:10;;;;;;;21.90;13.55;;;;;;;13.15;62.31;97938.56;7710300;32;39431;-69
2022/03/31 09:11:37;;;;;;;20.33;12.98;;;;;;;13.42;61.85;97925.50;7711250;32;39368;-69
2022/03/31 09:16:08;;;;;;;25.23;13.32;;;;;;;12.90;62.35;97920.41;7709108;32;38641;-70
2022/03/31 09:20:55;;;;;;;20.83;14.05;;;;;;;13.13;62.37;97929.88;7709407;32;37565;-69
2022/03/31 09:25:11;;;;;;;23.85;13.68;;;;;;;13.29;61.63;97926.53;7699657;32;39438;-69
2022/03/31 09:29:30;;;;;;;22.62;12.30;;;;;;;13.13;62.02;97916.22;7709402;32;40532;-70
2022/03/31 09:33:53;;;;;;;24.90;13.25;;;;;;;13.42;61.27;97900.88;7710011;32;38236;-69
2022/03/31 09:38:12;;;;;;;24.27;13.07;;;;;;;13.33;61.38;97894.66;7710102;32;36944;-67
2022/03/31 09:42:29;;;;;;;22.75;12.45;;;;;;;13.31;61.23;97894.16;7733147;32;39346;-69
2022/03/31 09:46:46;;;;;;;19.95;12.75;;;;;;;13.26;62.18;97894.38;7735196;32;40001;-70
2022/03/31 09:51:02;;;;;;;21.80;12.48;;;;;;;13.30;62.10;97885.16;7734909;32;38032;-71
2022/03/31 09:55:19;;;;;;;21.40;12.95;;;;;;;13.34;61.79;97861.47;7707597;32;37090;-70
2022/03/31 09:59:40;;;;;;;22.92;12.95;;;;;;;13.34;61.61;97874.37;7721282;32;39992;-68
2022/03/31 10:03:56;;;;;;;23.45;12.98;;;;;;;13.51;61.24;97857.78;7735024;32;39982;-68
2022/03/31 10:08:13;;;;;;;27.62;13.62;;;;;;;13.07;63.02;97851.09;7719646;32;37750;-69
2022/03/31 10:12:47;;;;;;;25.23;13.15;;;;;;;13.27;63.09;97830.31;7726377;32;37805;-69
2022/03/31 10:17:11;;;;;;;22.30;12.90;;;;;;;13.00;63.70;97828.94;7722248;32;40402;-68
2022/03/31 10:21:29;;;;;;;24.00;11.93;;;;;;;13.11;63.41;97832.88;7738539;32;40898;-69
2022/03/31 10:25:45;;;;;;;20.37;12.70;;;;;;;13.39;61.83;97824.09;7738484;32;37941;-69
2022/03/31 10:30:15;;;;;;;20.60;13.40;;;;;;;13.19;62.97;97822.97;7738010;32;37714;-68
2022/03/31 10:34:35;;;;;;;29.20;14.52;;;;;;;13.19;63.49;97820.25;7737970;32;39285;-68
2022/03/31 10:38:56;;;;;;;23.35;13.07;;;;;;;12.92;64.13;97836.13;7725096;32;40132;-69
2022/03/31 10:43:47;;;;;;;21.92;13.27;;;;;;;13.18;62.95;97830.41;7737730;32;37311;-69
2022/03/31 10:48:29;;;;;;;23.20;12.95;;;;;;;13.01;63.32;97825.88;7739091;32;37383;-69
2022/03/31 10:52:56;;;;;;;22.73;12.80;;;;;;;12.67;64.32;97824.25;7726878;32;39412;-69
2022/03/31 10:57:17;;;;;;;24.23;12.63;;;;;;;12.91;64.18;97807.94;7738834;32;40786;-68
2022/03/31 11:01:36;;;;;;;23.60;12.05;;;;;;;12.54;65.81;97804.25;7738691;32;38003;-68
2022/03/31 11:05:56;;;;;;;21.92;12.18;;;;;;;12.65;65.64;97799.97;7739002;32;37934;-69
2022/03/31 11:10:13;;;;;;;24.02;12.15;;;;;;;12.78;65.31;97803.56;7737473;32;39329;-69
2022/03/31 11:14:30;;;;;;;21.50;13.00;;;;;;;12.68;65.76;97791.09;7738668;32;40752;-69
2022/03/31 11:18:56;;;;;;;25.15;13.55;;;;;;;12.66;66.07;97795.28;7732616;32;38665;-70
2022/03/31 11:23:12;;;;;;;24.58;13.00;;;;;;;12.93;64.65;97788.47;7710534;32;37944;-69
2022/03/31 11:27:36;;;;;;;25.15;12.65;;;;;;;12.65;65.63;97799.97;7711282;32;39604;-69
2022/03/31 11:31:56;;;;;;;22.33;12.30;;;;;;;12.70;65.76;97779.84;7710825;32;40590;-70
2022/03/31 11:36:13;;;;;;;17.42;11.70;;;;;;;13.14;64.55;97766.53;7711602;32;37290;-69
2022/03/31 11:40:42;;;;;;;22.60;12.32;;;;;;;12.85;65.68;97764.72;7711575;32;37306;-69
2022/03/31 11:44:58;;;;;;;20.12;12.18;;;;;;;12.88;66.11;97756.69;7711523;32;40082;-69
2022/03/31 11:49:17;;;;;;;21.80;11.95;;;;;;;13.38;65.00;97743.91;7711387;32;40698;-69
2022/03/31 11:53:42;;;;;;;26.50;13.27;;;;;;;13.08;66.68;97744.06;7711285;32;37947;-68
2022/03/31 11:58:00;;;;;;;24.02;12.25;;;;;;;13.11;66.61;97729.72;7711487;32;37017;-69
2022/03/31 12:02:18;;;;;;;22.33;12.95;;;;;;;13.70;65.08;97734.03;7711421;32;40087;-69
2022/03/31 12:06:34;;;;;;;20.88;12.60;;;;;;;13.32;65.67;97726.16;7711256;32;41301;-70
2022/03/31 12:10:51;;;;;;;23.98;13.25;;;;;;;13.55;64.82;97731.19;7709907;32;37926;-69
2022/03/31 12:15:08;;;;;;;20.92;12.20;;;;;;;13.21;66.11;97727.69;7709979;32;37473;-69
2022/03/31 12:19:24;;;;;;;22.92;13.48;;;;;;;12.85;67.01;97715.50;7711158;32;39255;-69
2022/03/31 12:23:42;;;;;;;21.48;12.30;;;;;;;13.25;67.11;97701.25;7710996;32;39917;-69
2022/03/31 12:28:23;;;;;;;18.12;10.80;;;;;;;13.32;66.71;97707.00;7674335;32;38117;-69
2022/03/31 12:32:49;;;;;;;18.90;11.50;;;;;;;13.00;66.81;97701.19;7683523;32;37142;-70
2022/03/31 12:37:06;;;;;;;22.73;12.45;;;;;;;13.36;65.59;97696.94;7683577;32;39146;-69
2022/03/31 12:41:33;;;;;;;24.60;12.70;;;;;;;13.53;64.90;97693.97;7682510;32;40457;-69
2022/03/31 12:45:49;;;;;;;22.37;13.75;;;;;;;13.29;65.56;97686.53;7683362;32;38541;-69
2022/03/31 12:50:21;;;;;;;22.98;12.90;;;;;;;13.06;66.23;97682.66;7684305;32;37291;-69
2022/03/31 12:54:40;;;;;;;24.95;13.25;;;;;;;12.99;66.60;97685.94;7683068;32;40156;-69
2022/03/31 12:58:57;;;;;;;18.45;13.18;;;;;;;13.21;65.76;97678.44;7683001;32;39672;-69
2022/03/31 13:03:13;;;;;;;20.95;13.77;;;;;;;13.24;65.82;97683.22;7682894;32;37950;-69
2022/03/31 13:07:29;;;;;;;27.08;14.07;;;;;;;13.36;65.23;97680.53;7682893;32;37277;-70
2022/03/31 13:11:48;;;;;;;25.70;13.00;;;;;;;12.94;66.95;97672.47;7683982;32;39267;-69
2022/03/31 13:16:05;;;;;;;26.25;12.90;;;;;;;13.16;66.72;97674.00;7683846;32;39871;-69
2022/03/31 13:20:21;;;;;;;22.25;11.38;;;;;;;13.39;65.42;97647.00;7683728;32;38646;-69
2022/03/31 13:24:38;;;;;;;25.50;12.68;;;;;;;13.50;65.11;97650.06;7694622;32;37354;-69
2022/03/31 13:28:55;;;;;;;20.45;13.32;;;;;;;12.95;67.44;97658.47;7737065;32;39452;-68
2022/03/31 13:33:11;;;;;;;24.60;11.82;;;;;;;13.04;67.03;97647.44;7736889;32;40765;-68
2022/03/31 13:37:27;;;;;;;24.27;13.07;;;;;;;13.50;65.25;97631.72;7736702;32;38055;-69
2022/03/31 13:41:44;;;;;;;20.88;11.35;;;;;;;12.94;67.03;97636.94;7736361;32;38252;-69
2022/03/31 13:46:01;;;;;;;19.30;10.98;;;;;;;13.16;66.20;97627.50;7735476;32;39593;-70
2022/03/31 13:50:19;;;;;;;23.77;11.50;;;;;;;13.38;65.81;97623.50;7734189;32;39922;-69
2022/03/31 13:54:38;;;;;;;24.20;11.57;;;;;;;13.25;65.48;97613.69;7734922;32;38696;-69
2022/03/31 14:03:30;;;;;;;23.38;11.60;;;;;;;13.06;66.13;97611.53;7737334;32;40211;-69
2022/03/31 14:07:46;;;;;;;20.85;12.65;;;;;;;12.99;66.37;97605.81;7725423;32;39889;-69
2022/03/31 14:12:03;;;;;;;21.05;12.70;;;;;;;12.86;66.83;97605.00;7739151;32;39111;-68
2022/03/31 14:16:20;;;;;;;20.15;12.20;;;;;;;13.09;66.64;97594.41;7739134;32;37332;-68
2022/03/31 14:20:36;;;;;;;27.90;13.10;;;;;;;13.10;66.02;97582.34;7739036;32;39310;-69
2022/03/31 14:24:53;;;;;;;26.20;12.70;;;;;;;12.84;66.55;97577.22;7738675;32;39864;-69
2022/03/31 14:29:13;;;;;;;19.50;11.25;;;;;;;13.06;64.85;97589.66;7725144;32;37880;-68
2022/03/31 14:33:29;;;;;;;27.98;11.65;;;;;;;12.55;66.57;97582.50;7738830;32;37930;-68
2022/03/31 14:37:45;;;;;;;19.77;10.35;;;;;;;12.55;64.88;97565.31;7738998;32;39255;-68
2022/03/31 14:42:03;;;;;;;22.10;11.48;;;;;;;12.38;66.42;97569.03;7738928;32;40772;-69
2022/03/31 14:46:21;;;;;;;23.17;10.30;;;;;;;11.79;67.01;97559.91;7738562;32;37270;-68
2022/03/31 14:50:41;;;;;;;21.60;9.52;;;;;;;12.38;65.33;97545.25;7738791;32;37981;-69
2022/03/31 14:54:57;;;;;;;26.10;10.52;;;;;;;12.42;65.22;97544.56;7738748;32;39346;-69
2022/03/31 14:59:14;;;;;;;19.90;9.07;;;;;;;11.84;66.48;97537.06;7738640;32;40739;-69
2022/03/31 15:03:30;;;;;;;22.30;10.40;;;;;;;11.78;66.78;97533.75;7737716;32;37885;-68
2022/03/31 15:07:47;;;;;;;22.73;9.32;;;;;;;11.90;66.98;97530.28;7738123;32;37632;-68
2022/03/31 15:16:38;;;;;;;22.75;9.35;;;;;;;12.05;66.00;97517.94;7738508;32;39612;-69
2022/03/31 15:20:55;;;;;;;25.58;9.95;;;;;;;12.06;66.22;97516.03;7738444;32;37844;-68
2022/03/31 15:25:11;;;;;;;28.55;10.05;;;;;;;11.98;67.13;97509.50;7737588;32;37871;-69
2022/03/31 15:29:28;;;;;;;17.33;9.10;;;;;;;11.57;68.55;97506.50;7738397;32;39281;-69
2022/03/31 15:33:44;;;;;;;25.17;10.00;;;;;;;11.97;67.19;97500.53;7738467;32;40719;-69
2022/03/31 15:38:00;;;;;;;19.87;9.50;;;;;;;11.51;69.35;97498.84;7741101;32;38717;-70
2022/03/31 15:42:17;;;;;;;32.08;11.48;;;;;;;12.17;66.97;97496.13;7741563;32;35625;-69
2022/03/31 15:46:33;;;;;;;19.55;10.85;;;;;;;11.95;68.10;97497.34;7736443;32;39510;-68
2022/03/31 15:50:49;;;;;;;23.10;10.68;;;;;;;12.25;67.08;97497.19;7736915;32;39680;-68
2022/03/31 15:55:11;;;;;;;17.45;9.25;;;;;;;12.12;67.46;97487.38;7736981;32;37870;-69
2022/03/31 15:59:27;;;;;;;19.23;9.68;;;;;;;12.45;66.71;97475.56;7736548;32;37083;-68
2022/03/31 16:03:43;;;;;;;23.42;9.65;;;;;;;12.56;65.99;97476.72;7737667;32;39256;-69
2022/03/31 16:08:01;;;;;;;22.73;11.52;;;;;;;12.21;67.32;97472.47;7737468;32;40719;-68
2022/03/31 16:12:17;;;;;;;22.55;11.90;;;;;;;12.26;67.21;97471.44;7723688;32;38796;-69
2022/03/31 16:16:34;;;;;;;21.83;11.57;;;;;;;12.10;67.58;97484.19;7737316;32;37181;-68
2022/03/31 16:20:50;;;;;;;19.55;10.35;;;;;;;12.24;67.08;97472.94;7737790;32;40250;-69
2022/03/31 16:25:08;;;;;;;16.95;9.85;;;;;;;12.29;66.46;97470.78;7737679;32;39722;-69
2022/03/31 16:29:24;;;;;;;23.27;10.90;;;;;;;12.39;65.87;97458.62;7737214;32;37731;-69
2022/03/31 16:33:41;;;;;;;19.85;9.98;;;;;;;12.26;67.14;97460.53;7723707;32;37408;-68
2022/03/31 16:37:57;;;;;;;17.60;10.32;;;;;;;12.36;66.92;97460.06;7737573;32;39280;-69
2022/03/31 16:42:13;;;;;;;18.77;9.57;;;;;;;12.36;66.80;97457.34;7737272;32;39939;-69
2022/03/31 16:46:29;;;;;;;16.05;9.73;;;;;;;12.07;67.73;97446.63;7737882;32;38088;-69
2022/03/31 16:50:46;;;;;;;21.67;10.10;;;;;;;12.44;66.57;97433.00;7726902;32;331599;-69
2022/03/31 16:55:03;;;;;;;15.60;9.38;;;;;;;12.33;66.75;97438.09;7723574;32;39446;-69
2022/03/31 16:59:21;;;;;;;20.12;9.40;;;;;;;12.20;67.56;97427.16;7736994;32;40144;-68
2022/03/31 17:03:37;;;;;;;20.20;9.77;;;;;;;12.36;66.77;97431.97;7737037;32;37985;-69
2022/03/31 17:07:53;;;;;;;15.80;9.43;;;;;;;12.53;66.21;97430.94;7737199;32;37151;-69
2022/03/31 17:12:10;;;;;;;18.45;9.07;;;;;;;12.38;67.17;97430.50;7736929;32;39255;-68
2022/03/31 17:16:26;;;;;;;16.62;9.38;;;;;;;12.31;66.93;97430.25;7737323;32;41139;-69
2022/03/31 17:20:47;;;;;;;20.40;9.68;;;;;;;12.44;66.71;97427.53;7736426;32;37970;-68
2022/03/31 17:25:05;;;;;;;14.00;7.70;;;;;;;12.29;66.98;97427.06;7736427;32;37247;-69
2022/03/31 17:29:22;;;;;;;13.02;7.55;;;;;;;12.49;66.33;97419.13;7735696;32;40052;-69
2022/03/31 17:33:41;;;;;;;12.98;7.32;;;;;;;12.26;66.32;97429.69;7736620;32;39610;-68
2022/03/31 17:37:57;;;;;;;14.68;7.05;;;;;;;12.29;66.66;97427.06;7735685;32;38671;-68
2022/03/31 17:42:13;;;;;;;12.52;7.37;;;;;;;12.57;66.29;97423.66;7736238;32;37249;-69
2022/03/31 17:46:29;;;;;;;13.40;7.25;;;;;;;12.60;65.97;97422.97;7735555;32;39316;-70
2022/03/31 17:50:46;;;;;;;12.02;7.47;;;;;;;12.55;66.22;97428.66;7735361;32;40778;-69
2022/03/31 17:55:06;;;;;;;13.25;8.02;;;;;;;12.40;66.76;97421.97;7735125;32;38403;-69
2022/03/31 17:59:22;;;;;;;13.00;8.45;;;;;;;12.45;66.84;97416.25;7735054;32;38034;-69
2022/03/31 18:03:39;;;;;;;10.43;6.78;;;;;;;12.50;66.82;97415.22;7726064;32;39129;-69
2022/03/31 18:07:55;;;;;;;11.57;7.43;;;;;;;12.51;66.71;97419.56;7708696;32;40796;-70
2022/03/31 18:12:11;;;;;;;10.82;6.95;;;;;;;12.42;67.21;97413.41;7708337;32;37952;-70
2022/03/31 18:16:27;;;;;;;9.90;6.28;;;;;;;12.51;66.85;97414.09;7709148;32;37305;-69
2022/03/31 18:20:44;;;;;;;13.00;6.45;;;;;;;12.59;66.26;97418.66;7709085;32;39501;-69
2022/03/31 18:25:01;;;;;;;11.75;6.62;;;;;;;12.55;66.26;97412.25;7708749;32;40695;-70
2022/03/31 18:33:50;;;;;;;8.63;5.93;;;;;;;12.51;66.41;97411.38;7708773;32;37992;-68
2022/03/31 18:33:53;;;;;;;11.90;5.80;;;;;;;12.70;65.85;97397.91;7708784;32;37901;-69
2022/03/31 18:38:17;;;;;;;10.32;6.12;;;;;;;12.84;65.31;97413.16;7721685;32;40084;-69
2022/03/31 18:42:33;;;;;;;;;;;;;;;12.34;67.36;97420.59;7726800;32;40908;-69
2022/03/31 18:46:49;;;;;;;10.45;6.07;;;;;;;12.56;66.51;97419.34;7739495;32;38212;-69
2022/03/31 18:51:07;;;;;;;10.18;5.85;;;;;;;12.59;66.68;97424.13;7739264;32;37826;-69
2022/03/31 18:55:24;;;;;;;11.18;5.85;;;;;;;12.57;66.45;97421.72;7738819;32;40254;-73
2022/03/31 18:59:41;;;;;;;11.80;6.70;;;;;;;12.65;66.77;97427.41;7737362;32;40685;-70
2022/03/31 19:03:57;;;;;;;10.02;6.20;;;;;;;12.67;66.06;97425.91;7737972;32;38801;-70
2022/03/31 19:08:16;;;;;;;9.38;5.53;;;;;;;12.74;65.67;97419.88;7737320;32;37959;-69
2022/03/31 19:12:33;;;;;;;9.45;6.18;;;;;;;12.86;65.60;97416.34;7738037;32;39402;-70
2022/03/31 19:16:51;;;;;;;10.82;6.05;;;;;;;12.88;65.52;97414.03;7736801;32;40741;-70
2022/03/31 19:21:07;;;;;;;9.77;4.95;;;;;;;12.57;66.91;97413.53;7737849;32;37176;-70
2022/03/31 19:25:23;;;;;;;8.05;4.68;;;;;;;12.84;65.61;97410.41;7735618;32;37383;-70
2022/03/31 19:29:39;;;;;;;6.62;3.92;;;;;;;12.71;65.67;97409.63;7737713;32;39412;-69
2022/03/31 19:34:07;;;;;;;7.82;4.65;;;;;;;12.82;65.45;97407.25;7737665;32;40886;-69
2022/03/31 19:38:35;;;;;;;8.68;5.35;;;;;;;12.89;65.26;97410.19;7735973;32;38791;-70
2022/03/31 19:42:56;;;;;;;8.43;5.45;;;;;;;12.75;65.84;97411.34;7737744;32;36744;-69
2022/03/31 19:47:13;;;;;;;8.85;5.18;;;;;;;12.85;65.47;97410.06;7737481;32;39460;-70
2022/03/31 19:51:29;;;;;;;11.00;5.47;;;;;;;12.89;65.35;97408.22;7736685;32;39979;-69
2022/03/31 19:55:45;;;;;;;9.50;5.30;;;;;;;13.01;65.04;97407.41;7736969;32;38654;-70
2022/03/31 20:00:03;;;;;;;8.52;5.35;;;;;;;12.95;65.20;97408.78;7737359;32;37842;-69
2022/03/31 20:04:19;;;;;;;7.20;4.70;;;;;;;12.84;65.75;97408.47;7737208;32;39340;-70
2022/03/31 20:08:37;;;;;;;6.40;4.78;;;;;;;12.85;65.75;97401.06;7722119;32;40844;-70